createdAt,value
2023-04-20T00:01:22.101Z,100235.59
2023-04-20T00:06:29.854Z,100256.78
2023-04-20T00:11:32.558Z,100253.88
2023-04-20T00:16:35.304Z,100248.91
2023-04-20T00:21:37.863Z,100228.13
2023-04-20T00:26:40.421Z,100253.94
2023-04-20T00:31:43.127Z,100246.09
2023-04-20T00:36:45.653Z,100248.50
2023-04-20T00:41:48.290Z,100227.78
2023-04-20T00:46:54.000Z,100224.22
2023-04-20T00:52:01.053Z,100219.00
2023-04-20T00:57:04.706Z,100230.94
2023-04-20T01:02:10.638Z,100225.50
2023-04-20T01:07:16.503Z,100223.66
2023-04-20T01:12:19.164Z,100213.13
2023-04-20T01:17:22.409Z,100216.31
2023-04-20T01:22:24.959Z,100215.22
2023-04-20T01:27:27.679Z,100217.59
2023-04-20T01:32:30.752Z,100200.16
2023-04-20T01:37:35.514Z,100169.94
2023-04-20T01:42:40.364Z,100207.88
2023-04-20T01:47:43.229Z,100205.84
2023-04-20T01:52:45.925Z,100207.44
2023-04-20T01:57:48.804Z,100189.31
2023-04-20T02:02:51.745Z,100190.34
2023-04-20T02:07:54.497Z,100184.22
2023-04-20T02:12:57.105Z,100185.38
2023-04-20T02:18:00.502Z,100187.22
2023-04-20T02:23:03.200Z,100195.34
2023-04-20T02:28:05.775Z,100152.19
2023-04-20T02:33:08.506Z,100183.47
2023-04-20T02:38:11.030Z,100156.06
2023-04-20T02:43:14.831Z,100176.94
2023-04-20T02:48:17.803Z,100174.22
2023-04-20T02:53:20.566Z,100151.75
2023-04-20T02:58:29.458Z,100177.28
2023-04-20T03:03:55.094Z,100151.22
2023-04-20T03:08:58.081Z,100174.41
2023-04-20T03:14:21.014Z,100165.31
2023-04-20T03:19:24.355Z,100149.19
2023-04-20T03:24:27.183Z,100163.94
2023-04-20T03:29:31.803Z,100162.25
2023-04-20T03:34:35.351Z,100157.97
2023-04-20T03:39:38.523Z,100144.16
2023-04-20T03:44:41.298Z,100150.22
2023-04-20T03:49:44.924Z,100151.06
2023-04-20T03:54:48.031Z,100155.44
2023-04-20T03:59:52.719Z,100147.63
2023-04-20T04:04:58.199Z,100159.66
2023-04-20T04:10:04.972Z,100137.16
2023-04-20T04:15:09.203Z,100143.28
2023-04-20T04:20:19.884Z,100149.28
2023-04-20T04:25:23.363Z,100143.28
2023-04-20T04:30:27.349Z,100125.22
2023-04-20T04:35:30.566Z,100139.09
2023-04-20T04:40:33.768Z,100135.69
2023-04-20T04:45:40.987Z,100132.25
2023-04-20T04:50:46.785Z,100127.09
2023-04-20T04:55:49.423Z,100114.13
2023-04-20T05:00:52.158Z,100121.88
2023-04-20T05:05:55.103Z,100088.22
2023-04-20T05:10:58.174Z,100120.00
2023-04-20T05:16:00.833Z,100110.34
2023-04-20T05:21:03.470Z,100108.41
2023-04-20T05:26:06.505Z,100099.50
2023-04-20T05:31:09.262Z,100103.53
2023-04-20T05:36:11.823Z,100069.59
2023-04-20T05:41:14.717Z,100090.69
2023-04-20T05:46:17.273Z,100096.56
2023-04-20T05:51:20.001Z,100092.75
2023-04-20T05:56:22.577Z,100092.44
2023-04-20T06:01:25.478Z,100090.13
2023-04-20T06:06:28.123Z,100091.38
2023-04-20T06:11:31.392Z,100089.25
2023-04-20T06:16:34.265Z,100061.78
2023-04-20T06:21:36.946Z,100080.69
2023-04-20T06:26:39.550Z,100064.53
2023-04-20T06:31:42.455Z,100057.16
2023-04-20T06:36:45.104Z,100066.94
2023-04-20T06:41:47.826Z,100081.34
2023-04-20T06:46:50.817Z,100071.03
2023-04-20T06:51:53.537Z,100043.78
2023-04-20T06:56:56.376Z,100051.34
2023-04-20T07:01:59.164Z,100044.78
2023-04-20T07:07:01.879Z,100046.03
2023-04-20T07:12:04.708Z,100028.94
2023-04-20T07:17:07.390Z,100039.97
2023-04-20T07:22:09.945Z,100022.25
2023-04-20T07:27:12.488Z,100027.13
2023-04-20T07:32:15.243Z,100023.34
2023-04-20T07:37:17.987Z,100028.09
2023-04-20T07:42:21.559Z,100016.06
2023-04-20T07:47:24.192Z,99998.22
2023-04-20T07:52:27.072Z,100001.56
2023-04-20T07:57:29.829Z,99998.44
2023-04-20T08:02:33.317Z,99999.88
2023-04-20T08:07:36.449Z,100009.59
2023-04-20T08:12:40.315Z,100008.91
2023-04-20T08:17:42.924Z,99996.03
2023-04-20T08:22:45.748Z,99983.41
2023-04-20T08:27:48.372Z,99989.31
2023-04-20T08:32:51.127Z,99967.34
2023-04-20T08:37:53.827Z,99991.31
2023-04-20T08:42:57.144Z,99987.50
2023-04-20T08:48:05.322Z,99963.31
2023-04-20T08:53:09.759Z,99969.53
2023-04-20T08:58:12.477Z,99966.56
2023-04-20T09:03:15.557Z,99982.38
2023-04-20T09:08:18.531Z,99954.09
2023-04-20T09:13:23.200Z,99898.81
2023-04-20T09:18:25.829Z,99944.66
2023-04-20T09:23:28.435Z,99950.81
2023-04-20T09:28:42.867Z,99952.38
2023-04-20T09:33:45.792Z,99954.31
2023-04-20T09:38:48.342Z,99929.63
2023-04-20T09:43:51.445Z,99921.59
2023-04-20T09:48:54.141Z,99934.91
2023-04-20T09:53:58.839Z,99917.72
2023-04-20T09:59:02.528Z,99911.34
2023-04-20T10:04:11.150Z,99928.38
2023-04-20T10:09:23.018Z,99926.50
2023-04-20T10:14:26.649Z,99912.22
2023-04-20T10:19:44.117Z,99906.50
2023-04-20T10:24:47.107Z,99892.78
2023-04-20T10:29:49.874Z,99898.19
2023-04-20T10:35:10.197Z,99916.19
2023-04-20T10:40:13.454Z,99912.34
2023-04-20T10:45:16.087Z,99910.66
2023-04-20T10:50:19.151Z,99904.00
2023-04-20T10:55:23.876Z,99908.69
2023-04-20T11:00:28.846Z,99892.19
2023-04-20T11:05:31.507Z,99893.03
2023-04-20T11:10:39.806Z,99888.19
2023-04-20T11:15:42.407Z,99869.19
2023-04-20T11:20:52.065Z,99853.66
2023-04-20T11:25:56.419Z,99841.59
2023-04-20T11:30:59.063Z,99867.66
2023-04-20T11:36:02.382Z,99844.03
2023-04-20T11:41:05.022Z,99870.31
2023-04-20T11:46:20.873Z,99857.31
2023-04-20T11:51:26.978Z,99845.66
2023-04-20T11:56:29.559Z,99835.31
2023-04-20T12:01:33.209Z,99844.06
2023-04-20T12:06:35.862Z,99824.06
2023-04-20T12:11:38.380Z,99825.09
2023-04-20T12:16:41.056Z,99814.38
2023-04-20T12:21:43.882Z,99816.41
2023-04-20T12:26:47.092Z,99807.69
2023-04-20T12:31:49.810Z,99796.25
2023-04-20T12:37:35.520Z,99778.75
2023-04-20T12:42:49.262Z,99774.44
2023-04-20T12:48:00.333Z,99763.50
2023-04-20T12:53:03.782Z,99756.66
2023-04-20T12:58:06.440Z,99758.72
2023-04-20T13:03:10.101Z,99756.56
2023-04-20T13:08:12.859Z,99753.75
2023-04-20T13:13:15.494Z,99756.75
2023-04-20T13:18:18.386Z,99765.22
2023-04-20T13:23:22.691Z,99748.81
2023-04-20T13:28:25.794Z,99759.59
2023-04-20T13:33:28.394Z,99758.31
2023-04-20T13:38:31.090Z,99740.88
2023-04-20T13:43:33.792Z,99740.22
2023-04-20T13:48:36.506Z,99748.31
2023-04-20T13:53:39.095Z,99734.75
2023-04-20T13:58:41.849Z,99736.25
2023-04-20T14:03:44.945Z,99731.75
2023-04-20T14:08:48.236Z,99726.16
2023-04-20T14:13:51.963Z,99723.38
2023-04-20T14:18:54.635Z,99713.53
2023-04-20T14:23:57.284Z,99727.22
2023-04-20T14:29:00.057Z,99702.03
2023-04-20T14:34:03.138Z,99711.63
2023-04-20T14:39:05.764Z,99728.13
2023-04-20T14:44:08.294Z,99729.53
2023-04-20T14:49:10.892Z,99722.13
2023-04-20T14:54:13.415Z,99723.38
2023-04-20T14:59:16.597Z,99719.63
2023-04-20T15:04:21.660Z,99718.13
2023-04-20T15:09:24.517Z,99727.97
2023-04-20T15:14:27.480Z,99724.00
2023-04-20T15:19:30.208Z,99719.75
2023-04-20T15:24:32.990Z,99732.03
2023-04-20T15:29:36.420Z,99726.25
2023-04-20T15:34:39.114Z,99737.44
2023-04-20T15:39:41.800Z,99727.16
2023-04-20T15:44:44.745Z,99726.13
2023-04-20T15:49:47.473Z,99741.91
2023-04-20T15:54:50.161Z,99724.34
2023-04-20T15:59:52.757Z,99736.78
2023-04-20T16:04:55.462Z,99677.66
2023-04-20T16:09:58.123Z,99738.63
2023-04-20T16:15:02.121Z,99641.25
2023-04-20T16:20:08.614Z,99718.41
2023-04-20T16:25:22.445Z,99740.31
2023-04-20T16:30:25.182Z,99724.94
2023-04-20T16:35:27.853Z,99708.06
2023-04-20T16:40:31.048Z,99720.44
2023-04-20T16:45:33.872Z,99683.00
2023-04-20T16:50:38.074Z,99705.66
2023-04-20T16:55:44.843Z,99719.50
2023-04-20T17:00:47.487Z,99704.47
2023-04-20T17:05:50.073Z,99710.63
2023-04-20T17:10:52.717Z,99726.25
2023-04-20T17:15:55.251Z,99720.66
2023-04-20T17:20:58.735Z,99718.19
2023-04-20T17:26:02.535Z,99712.44
2023-04-20T17:31:05.434Z,99730.75
2023-04-20T17:36:08.191Z,99718.91
2023-04-20T17:41:10.953Z,99737.13
2023-04-20T17:46:13.682Z,99731.16
2023-04-20T17:51:16.385Z,99727.84
2023-04-20T17:56:19.046Z,99716.03
2023-04-20T18:01:22.188Z,99738.44
2023-04-20T18:06:24.798Z,99745.59
2023-04-20T18:11:27.981Z,99738.97
2023-04-20T18:16:30.820Z,99738.97
2023-04-20T18:21:34.877Z,99707.16
2023-04-20T18:26:38.139Z,99733.84
2023-04-20T18:31:41.284Z,99716.16
2023-04-20T18:36:43.923Z,99722.41
2023-04-20T18:41:46.684Z,99714.94
2023-04-20T18:46:49.302Z,99728.06
2023-04-20T18:51:52.032Z,99711.09
2023-04-20T18:56:58.387Z,99705.28
2023-04-20T19:02:05.641Z,99728.50
2023-04-20T19:07:08.277Z,99726.13
2023-04-20T19:12:11.003Z,99715.25
2023-04-20T19:17:13.705Z,99731.69
2023-04-20T19:22:16.323Z,99720.59
2023-04-20T19:27:18.876Z,99738.75
2023-04-20T19:32:21.611Z,99739.75
2023-04-20T19:37:24.159Z,99648.81
2023-04-20T19:42:26.705Z,99745.13
2023-04-20T19:47:29.364Z,99741.84
2023-04-20T19:52:34.446Z,99735.78
2023-04-20T19:57:37.143Z,99710.81
2023-04-20T20:02:41.290Z,99734.97
2023-04-20T20:07:43.961Z,99733.38
2023-04-20T20:12:47.089Z,99728.22
2023-04-20T20:17:50.190Z,99734.13
2023-04-20T20:22:52.936Z,99727.31
2023-04-20T20:27:55.721Z,99730.78
2023-04-20T20:32:59.147Z,99735.16
2023-04-20T20:38:06.291Z,99712.75
2023-04-20T20:43:08.969Z,99722.19
2023-04-20T20:48:11.580Z,99729.16
2023-04-20T20:53:17.322Z,99732.66
2023-04-20T20:58:20.078Z,99728.38
2023-04-20T21:03:22.898Z,99717.13
2023-04-20T21:08:25.666Z,99714.44
2023-04-20T21:13:28.264Z,99707.53
2023-04-20T21:18:31.110Z,99706.56
2023-04-20T21:23:33.887Z,99699.59
2023-04-20T21:28:36.517Z,99697.91
2023-04-20T21:33:39.229Z,99691.13
2023-04-20T21:38:41.910Z,99695.47
2023-04-20T21:43:44.595Z,99690.28
2023-04-20T21:48:47.656Z,99679.06
2023-04-20T21:53:50.257Z,99678.16
2023-04-20T21:58:52.956Z,99679.81
2023-04-20T22:03:56.388Z,99685.78
2023-04-20T22:08:59.046Z,99680.56
2023-04-20T22:14:01.903Z,99663.31
2023-04-20T22:19:04.596Z,99680.44
2023-04-20T22:24:07.430Z,99679.53
2023-04-20T22:29:10.072Z,99677.84
2023-04-20T22:34:12.867Z,99679.66
2023-04-20T22:39:15.452Z,99670.16
2023-04-20T22:44:18.114Z,99668.47
2023-04-20T22:49:21.195Z,99665.88
2023-04-20T22:54:24.631Z,99662.47
2023-04-20T22:59:27.318Z,99641.94
2023-04-20T23:04:29.807Z,99667.69
2023-04-20T23:09:32.539Z,99665.19
2023-04-20T23:14:37.024Z,99655.84
2023-04-20T23:19:40.383Z,99667.22
2023-04-20T23:24:43.059Z,99659.59
2023-04-20T23:29:45.723Z,99659.59
2023-04-20T23:34:48.312Z,99649.28
2023-04-20T23:39:50.965Z,99662.22
2023-04-20T23:44:53.513Z,99633.00
2023-04-20T23:49:56.088Z,99660.50
2023-04-20T23:54:58.691Z,99651.91
